sensor_id;sensor_type;location;lat;lon;timestamp;pressure;altitude;pressure_sealevel;temperature;humidity
65534;BME280;53640;55.838;37.184;2023-04-28T00:02:19;98535.19;;;11.38;47.44
65534;BME280;53640;55.838;37.184;2023-04-28T00:04:46;98454.88;;;10.86;47.63
65534;BME280;53640;55.838;37.184;2023-04-28T00:07:13;98440.47;;;10.69;47.64
65534;BME280;53640;55.838;37.184;2023-04-28T00:09:40;98495.81;;;10.90;47.55
65534;BME280;53640;55.838;37.184;2023-04-28T00:12:06;98588.50;;;11.49;47.91
65534;BME280;53640;55.838;37.184;2023-04-28T00:14:33;98550.47;;;11.15;48.10
65534;BME280;53640;55.838;37.184;2023-04-28T00:16:59;98482.22;;;10.73;48.18
65534;BME280;53640;55.838;37.184;2023-04-28T00:19:25;98570.84;;;11.18;48.11
65534;BME280;53640;55.838;37.184;2023-04-28T00:21:52;98501.75;;;10.75;48.01
65534;BME280;53640;55.838;37.184;2023-04-28T00:24:18;98506.94;;;10.76;48.17
65534;BME280;53640;55.838;37.184;2023-04-28T00:26:45;98523.50;;;10.92;48.16
65534;BME280;53640;55.838;37.184;2023-04-28T00:29:13;98572.00;;;11.22;48.34
65534;BME280;53640;55.838;37.184;2023-04-28T00:31:39;98596.09;;;11.35;47.86
65534;BME280;53640;55.838;37.184;2023-04-28T00:34:06;98478.69;;;10.61;47.70
65534;BME280;53640;55.838;37.184;2023-04-28T00:36:32;98431.69;;;10.38;47.77
65534;BME280;53640;55.838;37.184;2023-04-28T00:38:59;98586.00;;;11.31;47.75
65534;BME280;53640;55.838;37.184;2023-04-28T00:41:26;98483.97;;;10.79;47.79
65534;BME280;53640;55.838;37.184;2023-04-28T00:43:52;98496.06;;;10.88;47.74
65534;BME280;53640;55.838;37.184;2023-04-28T00:46:24;98523.34;;;10.98;47.88
65534;BME280;53640;55.838;37.184;2023-04-28T00:48:52;98476.00;;;10.72;48.01
65534;BME280;53640;55.838;37.184;2023-04-28T00:51:19;98470.25;;;10.69;47.72
65534;BME280;53640;55.838;37.184;2023-04-28T00:53:46;98428.75;;;10.40;47.21
65534;BME280;53640;55.838;37.184;2023-04-28T00:56:13;98517.78;;;11.05;47.38
65534;BME280;53640;55.838;37.184;2023-04-28T00:58:40;98587.44;;;11.50;47.16
65534;BME280;53640;55.838;37.184;2023-04-28T01:01:08;98581.28;;;11.55;46.98
65534;BME280;53640;55.838;37.184;2023-04-28T01:03:39;98503.13;;;11.18;46.83
65534;BME280;53640;55.838;37.184;2023-04-28T01:06:08;98472.13;;;10.97;46.50
65534;BME280;53640;55.838;37.184;2023-04-28T01:08:37;98578.00;;;11.69;46.44
65534;BME280;53640;55.838;37.184;2023-04-28T01:11:06;98485.94;;;11.12;46.23
65534;BME280;53640;55.838;37.184;2023-04-28T01:13:51;98567.69;;;11.66;46.02
65534;BME280;53640;55.838;37.184;2023-04-28T01:16:18;98481.34;;;11.13;46.28
65534;BME280;53640;55.838;37.184;2023-04-28T01:18:46;98521.00;;;11.47;46.13
65534;BME280;53640;55.838;37.184;2023-04-28T01:21:14;98473.34;;;11.18;46.14
65534;BME280;53640;55.838;37.184;2023-04-28T01:23:50;98493.44;;;11.22;46.53
65534;BME280;53640;55.838;37.184;2023-04-28T01:26:17;98486.75;;;11.13;46.30
65534;BME280;53640;55.838;37.184;2023-04-28T01:28:43;98548.59;;;11.44;46.97
65534;BME280;53640;55.838;37.184;2023-04-28T01:31:10;98502.31;;;11.17;47.00
65534;BME280;53640;55.838;37.184;2023-04-28T01:33:36;98495.16;;;11.11;47.36
65534;BME280;53640;55.838;37.184;2023-04-28T01:36:03;98470.16;;;10.92;47.17
65534;BME280;53640;55.838;37.184;2023-04-28T01:38:29;98432.00;;;10.65;47.08
65534;BME280;53640;55.838;37.184;2023-04-28T01:40:56;98435.38;;;10.61;47.41
65534;BME280;53640;55.838;37.184;2023-04-28T01:43:24;98532.94;;;11.18;47.21
65534;BME280;53640;55.838;37.184;2023-04-28T01:45:56;98458.09;;;10.71;47.16
65534;BME280;53640;55.838;37.184;2023-04-28T01:48:24;98593.09;;;11.48;47.16
65534;BME280;53640;55.838;37.184;2023-04-28T01:50:51;98438.47;;;10.52;47.18
65534;BME280;53640;55.838;37.184;2023-04-28T01:53:17;98426.69;;;10.59;47.38
65534;BME280;53640;55.838;37.184;2023-04-28T01:55:47;98563.09;;;11.38;47.28
65534;BME280;53640;55.838;37.184;2023-04-28T01:58:14;98460.59;;;10.73;47.23
65534;BME280;53640;55.838;37.184;2023-04-28T02:00:41;98460.47;;;10.68;47.61
65534;BME280;53640;55.838;37.184;2023-04-28T02:03:07;98476.69;;;10.68;47.71
65534;BME280;53640;55.838;37.184;2023-04-28T02:05:35;98503.22;;;10.94;47.61
65534;BME280;53640;55.838;37.184;2023-04-28T02:08:02;98460.59;;;10.73;47.56
65534;BME280;53640;55.838;37.184;2023-04-28T02:10:29;98491.84;;;10.81;47.79
65534;BME280;53640;55.838;37.184;2023-04-28T02:12:56;98489.97;;;10.81;47.90
65534;BME280;53640;55.838;37.184;2023-04-28T02:15:24;98453.06;;;10.51;47.74
65534;BME280;53640;55.838;37.184;2023-04-28T02:17:52;98430.19;;;10.42;48.14
65534;BME280;53640;55.838;37.184;2023-04-28T02:20:19;98553.66;;;11.12;48.00
65534;BME280;53640;55.838;37.184;2023-04-28T02:22:49;98537.25;;;10.90;48.14
65534;BME280;53640;55.838;37.184;2023-04-28T02:25:15;98449.25;;;10.36;48.08
65534;BME280;53640;55.838;37.184;2023-04-28T02:27:42;98442.19;;;10.35;48.20
65534;BME280;53640;55.838;37.184;2023-04-28T02:30:09;98533.28;;;10.81;48.16
65534;BME280;53640;55.838;37.184;2023-04-28T02:32:35;98498.81;;;10.53;48.11
65534;BME280;53640;55.838;37.184;2023-04-28T02:35:02;98556.41;;;11.00;48.32
65534;BME280;53640;55.838;37.184;2023-04-28T02:37:30;98546.44;;;10.89;48.50
65534;BME280;53640;55.838;37.184;2023-04-28T02:39:56;98578.16;;;11.06;48.81
65534;BME280;53640;55.838;37.184;2023-04-28T02:42:24;98517.91;;;10.70;48.53
65534;BME280;53640;55.838;37.184;2023-04-28T02:44:51;98541.88;;;10.78;48.28
65534;BME280;53640;55.838;37.184;2023-04-28T02:47:18;98531.91;;;10.67;48.91
65534;BME280;53640;55.838;37.184;2023-04-28T02:49:44;98513.56;;;10.57;48.54
65534;BME280;53640;55.838;37.184;2023-04-28T02:52:11;98487.69;;;10.38;48.68
65534;BME280;53640;55.838;37.184;2023-04-28T02:54:38;98582.09;;;10.98;48.67
65534;BME280;53640;55.838;37.184;2023-04-28T02:57:05;98541.31;;;10.76;48.69
65534;BME280;53640;55.838;37.184;2023-04-28T02:59:31;98546.94;;;10.74;48.79
65534;BME280;53640;55.838;37.184;2023-04-28T03:01:58;98570.34;;;10.92;48.68
65534;BME280;53640;55.838;37.184;2023-04-28T03:04:24;98523.78;;;10.55;49.12
65534;BME280;53640;55.838;37.184;2023-04-28T03:06:51;98528.00;;;10.63;48.98
65534;BME280;53640;55.838;37.184;2023-04-28T03:09:18;98540.94;;;10.61;49.50
65534;BME280;53640;55.838;37.184;2023-04-28T03:11:44;98465.97;;;10.21;49.36
65534;BME280;53640;55.838;37.184;2023-04-28T03:14:11;98488.19;;;10.35;49.20
65534;BME280;53640;55.838;37.184;2023-04-28T03:16:38;98514.25;;;10.52;49.19
65534;BME280;53640;55.838;37.184;2023-04-28T03:19:04;98555.41;;;10.78;49.51
65534;BME280;53640;55.838;37.184;2023-04-28T03:21:31;98594.19;;;11.07;49.15
65534;BME280;53640;55.838;37.184;2023-04-28T03:23:58;98466.44;;;10.18;49.44
65534;BME280;53640;55.838;37.184;2023-04-28T03:26:24;98480.19;;;10.28;49.08
65534;BME280;53640;55.838;37.184;2023-04-28T03:28:52;98532.81;;;10.61;49.36
65534;BME280;53640;55.838;37.184;2023-04-28T03:31:18;98556.50;;;10.65;49.20
65534;BME280;53640;55.838;37.184;2023-04-28T03:33:46;98630.53;;;11.23;49.12
65534;BME280;53640;55.838;37.184;2023-04-28T03:36:14;98527.31;;;10.55;49.34
65534;BME280;53640;55.838;37.184;2023-04-28T03:38:41;98540.00;;;10.55;49.07
65534;BME280;53640;55.838;37.184;2023-04-28T03:41:07;98518.03;;;10.51;49.22
65534;BME280;53640;55.838;37.184;2023-04-28T03:43:52;98570.25;;;10.87;49.11
65534;BME280;53640;55.838;37.184;2023-04-28T03:46:24;98554.59;;;10.77;49.25
65534;BME280;53640;55.838;37.184;2023-04-28T03:48:51;98575.50;;;10.94;49.09
65534;BME280;53640;55.838;37.184;2023-04-28T03:51:19;98533.66;;;10.61;49.28
65534;BME280;53640;55.838;37.184;2023-04-28T03:53:46;98543.41;;;10.74;49.20
65534;BME280;53640;55.838;37.184;2023-04-28T03:56:13;98486.84;;;10.49;48.94
65534;BME280;53640;55.838;37.184;2023-04-28T03:58:40;98521.69;;;10.69;49.06
65534;BME280;53640;55.838;37.184;2023-04-28T04:01:07;98495.56;;;10.51;49.17
65534;BME280;53640;55.838;37.184;2023-04-28T04:03:34;98630.72;;;11.45;49.44
65534;BME280;53640;55.838;37.184;2023-04-28T04:06:00;98608.81;;;11.35;49.08
65534;BME280;53640;55.838;37.184;2023-04-28T04:08:28;98551.59;;;11.02;48.74
65534;BME280;53640;55.838;37.184;2023-04-28T04:10:57;98548.16;;;11.07;48.76
65534;BME280;53640;55.838;37.184;2023-04-28T04:13:24;98635.69;;;11.65;48.59
65534;BME280;53640;55.838;37.184;2023-04-28T04:15:51;98492.34;;;10.77;48.71
65534;BME280;53640;55.838;37.184;2023-04-28T04:18:20;98567.16;;;11.24;48.90
65534;BME280;53640;55.838;37.184;2023-04-28T04:21:14;98575.25;;;11.36;48.72
65534;BME280;53640;55.838;37.184;2023-04-28T04:23:41;98598.19;;;11.45;49.00
65534;BME280;53640;55.838;37.184;2023-04-28T04:26:07;98550.47;;;11.15;48.90
65534;BME280;53640;55.838;37.184;2023-04-28T04:28:34;98592.84;;;11.50;48.93
65534;BME280;53640;55.838;37.184;2023-04-28T04:31:01;98611.81;;;11.50;49.64
65534;BME280;53640;55.838;37.184;2023-04-28T04:33:29;98625.16;;;11.51;50.28
65534;BME280;53640;55.838;37.184;2023-04-28T04:35:55;98573.44;;;11.13;50.28
65534;BME280;53640;55.838;37.184;2023-04-28T04:38:22;98662.25;;;11.51;51.66
65534;BME280;53640;55.838;37.184;2023-04-28T04:40:49;98662.53;;;11.38;52.85
65534;BME280;53640;55.838;37.184;2023-04-28T04:43:15;98662.66;;;11.31;53.12
65534;BME280;53640;55.838;37.184;2023-04-28T04:45:48;98659.78;;;11.09;53.18
65534;BME280;53640;55.838;37.184;2023-04-28T04:48:15;98645.78;;;11.00;54.40
65534;BME280;53640;55.838;37.184;2023-04-28T04:50:43;98663.81;;;10.95;54.57
65534;BME280;53640;55.838;37.184;2023-04-28T04:53:10;98628.34;;;10.49;56.44
65534;BME280;53640;55.838;37.184;2023-04-28T04:55:37;98697.16;;;10.84;55.72
65534;BME280;53640;55.838;37.184;2023-04-28T04:58:04;98636.72;;;10.36;56.74
65534;BME280;53640;55.838;37.184;2023-04-28T05:00:49;98575.19;;;9.96;56.53
65534;BME280;53640;55.838;37.184;2023-04-28T05:03:16;98658.13;;;10.49;57.02
65534;BME280;53640;55.838;37.184;2023-04-28T05:05:44;98646.03;;;10.40;58.11
65534;BME280;53640;55.838;37.184;2023-04-28T05:08:17;98634.47;;;10.33;57.36
65534;BME280;53640;55.838;37.184;2023-04-28T05:10:43;98623.66;;;10.33;57.77
65534;BME280;53640;55.838;37.184;2023-04-28T05:13:11;98629.44;;;10.25;57.51
65534;BME280;53640;55.838;37.184;2023-04-28T05:15:39;98641.41;;;10.29;57.59
65534;BME280;53640;55.838;37.184;2023-04-28T05:18:27;98700.28;;;10.57;57.96
65534;BME280;53640;55.838;37.184;2023-04-28T05:20:54;98623.84;;;9.96;58.59
65534;BME280;53640;55.838;37.184;2023-04-28T05:23:22;98616.88;;;9.77;60.09
65534;BME280;53640;55.838;37.184;2023-04-28T05:25:48;98695.97;;;10.26;59.85
65534;BME280;53640;55.838;37.184;2023-04-28T05:28:15;98700.81;;;10.24;60.13
65534;BME280;53640;55.838;37.184;2023-04-28T05:30:43;98682.78;;;10.06;60.61
65534;BME280;53640;55.838;37.184;2023-04-28T05:33:11;98730.56;;;10.24;61.23
65534;BME280;53640;55.838;37.184;2023-04-28T05:35:37;98703.78;;;10.04;61.32
65534;BME280;53640;55.838;37.184;2023-04-28T05:38:05;98692.97;;;10.04;61.47
65534;BME280;53640;55.838;37.184;2023-04-28T05:40:33;98688.88;;;10.01;62.01
65534;BME280;53640;55.838;37.184;2023-04-28T05:43:00;98648.72;;;9.75;61.30
65534;BME280;53640;55.838;37.184;2023-04-28T05:45:26;98607.91;;;9.65;61.21
65534;BME280;53640;55.838;37.184;2023-04-28T05:47:54;98563.06;;;9.45;61.40
65534;BME280;53640;55.838;37.184;2023-04-28T05:50:21;98601.22;;;9.67;60.90
65534;BME280;53640;55.838;37.184;2023-04-28T05:52:49;98669.28;;;10.18;60.52
65534;BME280;53640;55.838;37.184;2023-04-28T05:55:16;98580.63;;;9.66;60.74
65534;BME280;53640;55.838;37.184;2023-04-28T05:57:42;98669.19;;;10.36;60.44
65534;BME280;53640;55.838;37.184;2023-04-28T06:00:09;98670.97;;;10.42;60.38
65534;BME280;53640;55.838;37.184;2023-04-28T06:02:39;98705.13;;;10.67;60.21
65534;BME280;53640;55.838;37.184;2023-04-28T06:05:06;98601.75;;;10.11;60.09
65534;BME280;53640;55.838;37.184;2023-04-28T06:07:33;98644.28;;;10.46;60.01
65534;BME280;53640;55.838;37.184;2023-04-28T06:10:00;98635.31;;;10.45;60.16
65534;BME280;53640;55.838;37.184;2023-04-28T06:12:26;98684.78;;;10.76;59.72
65534;BME280;53640;55.838;37.184;2023-04-28T06:14:53;98701.25;;;10.86;59.79
65534;BME280;53640;55.838;37.184;2023-04-28T06:17:21;98667.69;;;10.75;59.74
65534;BME280;53640;55.838;37.184;2023-04-28T06:19:49;98697.34;;;11.06;59.58
65534;BME280;53640;55.838;37.184;2023-04-28T06:22:18;98650.88;;;10.85;59.81
65534;BME280;53640;55.838;37.184;2023-04-28T06:25:11;98692.25;;;11.21;59.82
65534;BME280;53640;55.838;37.184;2023-04-28T06:27:46;98545.81;;;10.35;59.58
65534;BME280;53640;55.838;37.184;2023-04-28T06:30:20;98627.66;;;10.89;59.66
65534;BME280;53640;55.838;37.184;2023-04-28T06:32:52;98619.91;;;10.93;59.60
65534;BME280;53640;55.838;37.184;2023-04-28T06:35:21;98565.28;;;10.61;59.52
65534;BME280;53640;55.838;37.184;2023-04-28T06:37:48;98609.16;;;10.98;59.54
65534;BME280;53640;55.838;37.184;2023-04-28T06:40:21;98582.97;;;10.75;60.07
65534;BME280;53640;55.838;37.184;2023-04-28T06:42:58;98685.94;;;11.56;59.71
65534;BME280;53640;55.838;37.184;2023-04-28T06:45:42;98575.66;;;10.87;59.97
65534;BME280;53640;55.838;37.184;2023-04-28T06:48:25;98550.34;;;10.82;60.96
65534;BME280;53640;55.838;37.184;2023-04-28T06:51:10;98707.56;;;11.79;60.33
65534;BME280;53640;55.838;37.184;2023-04-28T06:53:43;98701.66;;;11.82;60.09
65534;BME280;53640;55.838;37.184;2023-04-28T06:56:13;98561.34;;;11.03;60.62
65534;BME280;53640;55.838;37.184;2023-04-28T06:58:42;98549.44;;;11.05;61.01
65534;BME280;53640;55.838;37.184;2023-04-28T07:01:12;98564.22;;;11.25;61.40
65534;BME280;53640;55.838;37.184;2023-04-28T07:03:44;98534.31;;;11.20;62.10
65534;BME280;53640;55.838;37.184;2023-04-28T07:06:40;98639.09;;;12.01;62.23
65534;BME280;53640;55.838;37.184;2023-04-28T07:09:50;98599.63;;;11.93;61.46
65534;BME280;53640;55.838;37.184;2023-04-28T07:12:35;98649.28;;;12.44;60.83
65534;BME280;53640;55.838;37.184;2023-04-28T07:15:06;98568.16;;;12.09;60.64
65534;BME280;53640;55.838;37.184;2023-04-28T07:17:37;98698.22;;;13.00;60.95
65534;BME280;53640;55.838;37.184;2023-04-28T07:20:07;98610.63;;;12.54;58.97
65534;BME280;53640;55.838;37.184;2023-04-28T07:22:41;98626.75;;;12.43;60.81
65534;BME280;53640;55.838;37.184;2023-04-28T07:25:08;98638.31;;;12.56;58.72
65534;BME280;53640;55.838;37.184;2023-04-28T07:27:47;98591.38;;;12.21;58.93
65534;BME280;53640;55.838;37.184;2023-04-28T07:30:26;98562.63;;;12.04;59.79
65534;BME280;53640;55.838;37.184;2023-04-28T07:32:53;98669.59;;;12.58;58.95
65534;BME280;53640;55.838;37.184;2023-04-28T07:35:22;98584.66;;;12.07;58.53
65534;BME280;53640;55.838;37.184;2023-04-28T07:37:49;98630.22;;;12.39;57.69
65534;BME280;53640;55.838;37.184;2023-04-28T07:40:16;98701.34;;;12.75;59.06
65534;BME280;53640;55.838;37.184;2023-04-28T07:42:43;98684.06;;;12.64;57.88
65534;BME280;53640;55.838;37.184;2023-04-28T07:45:11;98700.94;;;12.66;58.55
65534;BME280;53640;55.838;37.184;2023-04-28T07:47:37;98718.88;;;12.67;59.12
65534;BME280;53640;55.838;37.184;2023-04-28T07:50:04;98600.84;;;11.85;58.74
65534;BME280;53640;55.838;37.184;2023-04-28T07:52:33;98642.84;;;11.99;57.60
65534;BME280;53640;55.838;37.184;2023-04-28T07:55:00;98607.91;;;11.86;57.37
65534;BME280;53640;55.838;37.184;2023-04-28T07:57:31;98682.84;;;12.38;57.63
65534;BME280;53640;55.838;37.184;2023-04-28T08:00:01;98704.41;;;12.61;58.60
65534;BME280;53640;55.838;37.184;2023-04-28T08:02:38;98690.34;;;12.64;57.66
65534;BME280;53640;55.838;37.184;2023-04-28T08:05:06;98610.06;;;12.18;57.81
65534;BME280;53640;55.838;37.184;2023-04-28T08:07:35;98698.63;;;12.75;57.12
65534;BME280;53640;55.838;37.184;2023-04-28T08:10:04;98728.75;;;12.90;56.78
65534;BME280;53640;55.838;37.184;2023-04-28T08:12:31;98654.22;;;12.47;57.43
65534;BME280;53640;55.838;37.184;2023-04-28T08:14:58;98691.81;;;12.72;57.27
65534;BME280;53640;55.838;37.184;2023-04-28T08:17:27;98687.94;;;12.68;56.87
65534;BME280;53640;55.838;37.184;2023-04-28T08:19:57;98719.72;;;12.84;57.24
65534;BME280;53640;55.838;37.184;2023-04-28T08:22:32;98667.13;;;12.40;57.73
65534;BME280;53640;55.838;37.184;2023-04-28T08:25:02;98645.44;;;12.23;57.25
65534;BME280;53640;55.838;37.184;2023-04-28T08:27:29;98594.91;;;11.88;58.09
65534;BME280;53640;55.838;37.184;2023-04-28T08:29:56;98721.59;;;12.67;58.31
65534;BME280;53640;55.838;37.184;2023-04-28T08:32:25;98718.78;;;12.62;58.30
65534;BME280;53640;55.838;37.184;2023-04-28T08:34:52;98659.66;;;12.30;57.31
65534;BME280;53640;55.838;37.184;2023-04-28T08:37:19;98721.91;;;12.70;57.41
65534;BME280;53640;55.838;37.184;2023-04-28T08:39:46;98733.09;;;12.74;57.39
65534;BME280;53640;55.838;37.184;2023-04-28T08:42:13;98638.84;;;12.19;57.95
65534;BME280;53640;55.838;37.184;2023-04-28T08:44:41;98668.88;;;12.46;57.76
65534;BME280;53640;55.838;37.184;2023-04-28T08:47:11;98671.44;;;12.53;58.47
65534;BME280;53640;55.838;37.184;2023-04-28T08:49:40;98635.06;;;12.20;58.27
65534;BME280;53640;55.838;37.184;2023-04-28T08:52:11;98585.81;;;11.94;57.87
65534;BME280;53640;55.838;37.184;2023-04-28T08:54:39;98697.56;;;12.59;57.23
65534;BME280;53640;55.838;37.184;2023-04-28T08:57:12;98659.56;;;12.42;56.15
65534;BME280;53640;55.838;37.184;2023-04-28T08:59:39;98656.09;;;12.30;57.95
65534;BME280;53640;55.838;37.184;2023-04-28T09:02:07;98731.66;;;12.83;57.59
65534;BME280;53640;55.838;37.184;2023-04-28T09:04:34;98678.00;;;12.57;57.24
65534;BME280;53640;55.838;37.184;2023-04-28T09:07:03;98719.22;;;12.87;57.87
65534;BME280;53640;55.838;37.184;2023-04-28T09:09:30;98737.81;;;12.95;57.92
65534;BME280;53640;55.838;37.184;2023-04-28T09:12:01;98681.34;;;12.64;57.53
65534;BME280;53640;55.838;37.184;2023-04-28T09:14:31;98689.91;;;12.72;58.00
65534;BME280;53640;55.838;37.184;2023-04-28T09:17:10;98726.63;;;12.92;57.76
65534;BME280;53640;55.838;37.184;2023-04-28T09:19:42;98669.53;;;12.53;57.70
65534;BME280;53640;55.838;37.184;2023-04-28T09:22:10;98692.63;;;12.72;58.08
65534;BME280;53640;55.838;37.184;2023-04-28T09:24:40;98694.53;;;12.72;58.05
65534;BME280;53640;55.838;37.184;2023-04-28T09:27:09;98656.66;;;12.48;56.69
65534;BME280;53640;55.838;37.184;2023-04-28T09:29:38;98617.53;;;12.28;56.83
65534;BME280;53640;55.838;37.184;2023-04-28T09:32:18;98622.38;;;12.26;56.53
65534;BME280;53640;55.838;37.184;2023-04-28T09:34:51;98620.16;;;12.22;57.21
65534;BME280;53640;55.838;37.184;2023-04-28T09:37:22;98605.63;;;12.12;56.72
65534;BME280;53640;55.838;37.184;2023-04-28T09:39:52;98647.56;;;12.38;57.14
65534;BME280;53640;55.838;37.184;2023-04-28T09:45:07;98615.00;;;12.21;57.39
65534;BME280;53640;55.838;37.184;2023-04-28T09:47:41;98712.66;;;12.83;58.45
65534;BME280;53640;55.838;37.184;2023-04-28T09:50:16;98687.38;;;12.66;57.18
65534;BME280;53640;55.838;37.184;2023-04-28T09:52:45;98663.94;;;12.43;56.92
65534;BME280;53640;55.838;37.184;2023-04-28T09:55:14;98724.50;;;12.77;57.49
65534;BME280;53640;55.838;37.184;2023-04-28T09:57:46;98746.13;;;12.89;57.02
65534;BME280;53640;55.838;37.184;2023-04-28T10:00:35;98660.47;;;12.31;57.23
65534;BME280;53640;55.838;37.184;2023-04-28T10:03:03;98723.31;;;12.73;57.45
65534;BME280;53640;55.838;37.184;2023-04-28T10:05:39;98755.09;;;12.89;57.55
65534;BME280;53640;55.838;37.184;2023-04-28T10:08:10;98653.97;;;12.32;58.10
65534;BME280;53640;55.838;37.184;2023-04-28T10:10:43;98630.03;;;12.29;57.93
65534;BME280;53640;55.838;37.184;2023-04-28T10:13:16;98668.50;;;12.59;58.47
65534;BME280;53640;55.838;37.184;2023-04-28T10:16:00;98655.84;;;12.65;58.13
65534;BME280;53640;55.838;37.184;2023-04-28T10:19:08;98681.88;;;12.78;57.88
65534;BME280;53640;55.838;37.184;2023-04-28T10:34:52;98660.97;;;12.78;57.46
65534;BME280;53640;55.838;37.184;2023-04-28T10:38:25;98747.91;;;13.56;58.26
65534;BME280;53640;55.838;37.184;2023-04-28T10:40:41;98639.97;;;13.12;56.79
65534;BME280;53640;55.838;37.184;2023-04-28T10:43:10;98761.13;;;13.91;56.12
65534;BME280;53640;55.838;37.184;2023-04-28T10:46:01;98763.00;;;13.85;56.16
65534;BME280;53640;55.838;37.184;2023-04-28T10:51:37;98640.56;;;12.98;55.89
65534;BME280;53640;55.838;37.184;2023-04-28T10:54:07;98663.09;;;13.15;55.32
65534;BME280;53640;55.838;37.184;2023-04-28T10:56:34;98677.78;;;13.14;56.30
65534;BME280;53640;55.838;37.184;2023-04-28T10:59:26;98760.91;;;13.71;55.57
65534;BME280;53640;55.838;37.184;2023-04-28T11:01:54;98709.06;;;13.38;55.41
65534;BME280;53640;55.838;37.184;2023-04-28T11:04:26;98690.84;;;13.17;54.71
65534;BME280;53640;55.838;37.184;2023-04-28T11:07:09;98763.28;;;13.67;53.84
65534;BME280;53640;55.838;37.184;2023-04-28T11:12:03;98686.16;;;13.12;54.44
65534;BME280;53640;55.838;37.184;2023-04-28T11:14:37;98707.81;;;13.24;54.30
65534;BME280;53640;55.838;37.184;2023-04-28T11:17:07;98712.81;;;13.32;53.83
65534;BME280;53640;55.838;37.184;2023-04-28T11:19:42;98766.44;;;13.59;53.82
65534;BME280;53640;55.838;37.184;2023-04-28T11:22:15;98780.59;;;13.61;53.46
65534;BME280;53640;55.838;37.184;2023-04-28T11:25:00;98658.72;;;12.75;52.83
65534;BME280;53640;55.838;37.184;2023-04-28T11:27:30;98644.66;;;12.61;52.63
65534;BME280;53640;55.838;37.184;2023-04-28T11:29:58;98710.00;;;12.88;53.98
65534;BME280;53640;55.838;37.184;2023-04-28T11:32:29;98695.09;;;12.74;54.13
65534;BME280;53640;55.838;37.184;2023-04-28T11:34:56;98742.34;;;12.90;54.72
65534;BME280;53640;55.838;37.184;2023-04-28T11:37:23;98800.06;;;13.14;54.31
65534;BME280;53640;55.838;37.184;2023-04-28T11:39:50;98753.41;;;12.83;54.39
65534;BME280;53640;55.838;37.184;2023-04-28T11:42:16;98758.03;;;12.71;54.74
65534;BME280;53640;55.838;37.184;2023-04-28T11:45:06;98795.84;;;12.89;54.60
65534;BME280;53640;55.838;37.184;2023-04-28T11:47:33;98755.66;;;12.58;54.91
65534;BME280;53640;55.838;37.184;2023-04-28T11:50:00;98800.94;;;12.69;54.62
65534;BME280;53640;55.838;37.184;2023-04-28T11:52:27;98805.19;;;12.65;55.34
65534;BME280;53640;55.838;37.184;2023-04-28T11:54:55;98810.38;;;12.50;56.58
65534;BME280;53640;55.838;37.184;2023-04-28T11:57:23;98794.50;;;12.30;55.75
65534;BME280;53640;55.838;37.184;2023-04-28T11:59:50;98771.00;;;12.07;56.07
65534;BME280;53640;55.838;37.184;2023-04-28T12:02:25;98801.41;;;12.20;55.93
65534;BME280;53640;55.838;37.184;2023-04-28T12:05:03;98782.97;;;11.94;55.49
65534;BME280;53640;55.838;37.184;2023-04-28T12:07:43;98793.91;;;11.99;55.89
65534;BME280;53640;55.838;37.184;2023-04-28T12:10:14;98754.41;;;11.63;56.16
65534;BME280;53640;55.838;37.184;2023-04-28T12:12:41;98807.44;;;11.82;56.13
65534;BME280;53640;55.838;37.184;2023-04-28T12:15:10;98756.78;;;11.47;56.12
65534;BME280;53640;55.838;37.184;2023-04-28T12:17:39;98790.47;;;11.63;56.25
65534;BME280;53640;55.838;37.184;2023-04-28T12:20:32;98807.44;;;11.59;56.50
65534;BME280;53640;55.838;37.184;2023-04-28T12:22:58;98794.38;;;11.32;56.79
65534;BME280;53640;55.838;37.184;2023-04-28T12:25:24;98763.41;;;11.05;56.75
65534;BME280;53640;55.838;37.184;2023-04-28T12:28:02;98735.63;;;10.74;56.62
65534;BME280;53640;55.838;37.184;2023-04-28T12:30:32;98779.66;;;10.93;56.58
65534;BME280;53640;55.838;37.184;2023-04-28T12:33:06;98807.34;;;10.95;57.05
65534;BME280;53640;55.838;37.184;2023-04-28T12:35:46;98813.94;;;10.87;56.81
65534;BME280;53640;55.838;37.184;2023-04-28T12:38:14;98819.34;;;10.87;56.96
65534;BME280;53640;55.838;37.184;2023-04-28T12:40:42;98833.47;;;10.89;56.95
65534;BME280;53640;55.838;37.184;2023-04-28T12:43:08;98807.19;;;10.78;56.67
65534;BME280;53640;55.838;37.184;2023-04-28T12:45:36;98836.63;;;10.86;56.67
65534;BME280;53640;55.838;37.184;2023-04-28T12:48:02;98779.94;;;10.61;56.65
65534;BME280;53640;55.838;37.184;2023-04-28T12:50:29;98826.25;;;10.83;56.49
65534;BME280;53640;55.838;37.184;2023-04-28T12:52:58;98815.31;;;10.78;56.00
65534;BME280;53640;55.838;37.184;2023-04-28T12:55:25;98770.16;;;10.60;56.26
65534;BME280;53640;55.838;37.184;2023-04-28T12:57:52;98702.69;;;10.23;55.85
65534;BME280;53640;55.838;37.184;2023-04-28T13:00:20;98775.03;;;10.70;55.59
65534;BME280;53640;55.838;37.184;2023-04-28T13:02:49;98816.75;;;10.92;54.50
65534;BME280;53640;55.838;37.184;2023-04-28T13:05:16;98789.28;;;10.65;53.86
65534;BME280;53640;55.838;37.184;2023-04-28T13:07:44;98802.56;;;10.67;54.13
65534;BME280;53640;55.838;37.184;2023-04-28T13:10:11;98784.13;;;10.45;54.02
65534;BME280;53640;55.838;37.184;2023-04-28T13:12:39;98781.38;;;10.34;53.88
65534;BME280;53640;55.838;37.184;2023-04-28T13:15:10;98760.78;;;10.21;54.08
65534;BME280;53640;55.838;37.184;2023-04-28T13:17:48;98788.66;;;10.21;53.86
65534;BME280;53640;55.838;37.184;2023-04-28T13:20:19;98794.53;;;10.00;54.35
65534;BME280;53640;55.838;37.184;2023-04-28T13:22:46;98810.81;;;10.12;54.50
65534;BME280;53640;55.838;37.184;2023-04-28T13:25:15;98847.31;;;10.21;55.08
65534;BME280;53640;55.838;37.184;2023-04-28T13:27:41;98799.44;;;9.91;55.32